Bookmark and Share
Track history (hours):
 

Ernest Campbell

More information available from US FCC via Universal Licensing System and Coast Guard Vessel Documentation Center.

Last reported at 2014-Apr-23 12:32 UTC. Time now 2014-Apr-23 13:10 UTC.
Position N 37°48' W 122°17'.

Length 33 m; draft 15.3 m.

Type: Tow > 200 m length. MMSI: 366882320.

NotesDate/timePositionNaut miles runAvg speedWind from/ knotsBaromVisibWave heightAir tempDewpointWater temp
2014-Apr-23 12:32N 37°48' W 122°17'0 0.0
2014-Apr-23 11:32N 37°48' W 122°17'0 0.0
2014-Apr-23 10:32N 37°48' W 122°17'0 0.0
2014-Apr-23 09:32N 37°48' W 122°17'0 0.0
2014-Apr-23 08:32N 37°48' W 122°17'0 0.0
2014-Apr-23 07:32N 37°48' W 122°17'0 0.0
2014-Apr-23 06:28N 37°48' W 122°17'0 0.0
2014-Apr-23 05:29N 37°48' W 122°17'0 0.0
2014-Apr-23 04:31N 37°48' W 122°17'0 0.0
2014-Apr-23 03:31N 37°48' W 122°17'0 0.0
2014-Apr-23 02:31N 37°48' W 122°17'0 0.0
2014-Apr-23 01:31N 37°48' W 122°17'0 0.0
2014-Apr-23 00:31N 37°48' W 122°17'0 0.0
2014-Apr-22 23:31N 37°48' W 122°17'0 0.0
2014-Apr-22 22:31N 37°48' W 122°17'0 0.0
2014-Apr-22 21:31N 37°48' W 122°17'0 0.0
2014-Apr-22 20:31N 37°48' W 122°17'0 0.0
2014-Apr-22 19:31N 37°48' W 122°17'0 0.0
2014-Apr-22 18:31N 37°48' W 122°17'0 0.0
2014-Apr-22 17:31N 37°48' W 122°17'0 0.0
2014-Apr-22 16:31N 37°48' W 122°17'0 0.0
2014-Apr-22 15:31N 37°48' W 122°17'0 0.0
2014-Apr-22 14:31N 37°48' W 122°17'0 0.0
2014-Apr-22 13:31N 37°48' W 122°17'0 0.0
2014-Apr-22 12:28N 37°48' W 122°17'0 0.0
2014-Apr-22 11:31N 37°48' W 122°17'0 0.0
2014-Apr-22 10:28N 37°48' W 122°17'0 0.0
2014-Apr-22 09:31N 37°48' W 122°17'0 0.0
2014-Apr-22 08:31N 37°48' W 122°17'0 0.0
2014-Apr-22 07:31N 37°48' W 122°17'0 0.0
2014-Apr-22 06:31N 37°48' W 122°17'0 0.0
2014-Apr-22 05:31N 37°48' W 122°17'0 0.0
2014-Apr-22 04:31N 37°48' W 122°17'0 0.0
2014-Apr-22 03:31N 37°48' W 122°17'0 0.0
2014-Apr-22 02:31N 37°48' W 122°17'0 0.0
2014-Apr-22 01:31N 37°48' W 122°17'0 0.0
2014-Apr-22 00:31N 37°48' W 122°17'0 0.0
2014-Apr-21 23:31N 37°48' W 122°17'0 0.0
2014-Apr-21 22:31N 37°48' W 122°17'0 0.0
2014-Apr-21 21:34N 37°48' W 122°17'0 0.0
2014-Apr-21 20:33N 37°48' W 122°17'5 4.8
2014-Apr-21 19:33N 37°49' W 122°23'7 7.1
2014-Apr-21 18:32N 37°56' W 122°27'8 8.0
2014-Apr-21 17:33N 38°02' W 122°21'8 8.1
2014-Apr-21 16:34N 38°03' W 122°11'5 4.6
2014-Apr-21 15:34N 38°03' W 122°06'0 0.0
2014-Apr-21 12:30N 38°03' W 122°05'0 0.0
2014-Apr-21 05:21N 38°03' W 122°05'0 0.0
2014-Apr-21 01:18N 38°03' W 122°05'0 0.0
2014-Apr-20 22:12N 38°03' W 122°06'3 4.5
2014-Apr-20 21:32N 38°02' W 122°09'3 3.2
2014-Apr-20 20:32N 38°04' W 122°13'4 3.9
2014-Apr-20 19:33N 38°03' W 122°17'4 3.8
2014-Apr-20 18:33N 38°02' W 122°22'4 4.0
2014-Apr-20 17:33N 37°59' W 122°26'4 3.6
2014-Apr-20 16:32N 37°56' W 122°27'5 4.8
2014-Apr-20 15:33N 37°51' W 122°24'4 4.0
2014-Apr-20 14:33N 37°49' W 122°28'3 2.9
2014-Apr-20 13:26N 37°47' W 122°32'7 3.7
2014-Apr-20 11:29N 37°43' W 122°39'1 1.3
2014-Apr-20 10:33N 37°44' W 122°40'15 5.0
2014-Apr-20 07:31N 37°36' W 122°56'6 5.7
2014-Apr-20 06:25N 37°32' W 123°03'26 4.3
2014-Apr-20 00:18N 37°06' W 123°07'4 6.0
2014-Apr-19 23:33N 37°02' W 123°04'6 5.9
2014-Apr-19 22:32N 36°56' W 123°03'6 5.8
2014-Apr-19 21:33N 36°50' W 123°02'6 5.7
2014-Apr-19 20:33N 36°45' W 122°59'6 5.9
2014-Apr-19 19:33N 36°40' W 122°56'6 6.0
2014-Apr-19 18:33N 36°34' W 122°53'6 5.6
2014-Apr-19 17:32N 36°29' W 122°51'6 5.6
2014-Apr-19 16:33N 36°24' W 122°48'7 5.6
2014-Apr-19 15:18N 36°17' W 122°45'4 5.4
2014-Apr-19 14:33N 36°13' W 122°43'5 5.5
2014-Apr-19 13:33N 36°08' W 122°40'5 5.2
2014-Apr-19 12:34N 36°04' W 122°37'5 5.0
2014-Apr-19 11:33N 35°59' W 122°35'5 5.2
2014-Apr-19 10:33N 35°54' W 122°33'5 5.1
2014-Apr-19 09:33N 35°50' W 122°30'5 5.2
2014-Apr-19 08:32N 35°45' W 122°27'5 5.2
2014-Apr-19 07:33N 35°40' W 122°25'5 5.2
2014-Apr-19 06:33N 35°35' W 122°23'5 5.2
2014-Apr-19 05:33N 35°30' W 122°20'10 5.2
2014-Apr-19 03:33N 35°21' W 122°16'5 4.6
2014-Apr-19 02:33N 35°16' W 122°14'5 4.5
2014-Apr-19 01:26N 35°12' W 122°12'15 3.9
2014-Apr-18 21:30N 34°58' W 122°04'8 3.8
2014-Apr-18 19:28N 34°51' W 122°00'159 4.5
2014-Apr-17 08:33N 33°39' W 119°09'7 6.6
2014-Apr-17 07:28N 33°39' W 119°00'26 6.4
2014-Apr-17 03:26N 33°39' W 118°29'6 6.3
2014-Apr-17 02:33N 33°38' W 118°23'8 3.9
2014-Apr-17 00:33N 33°44' W 118°16'0 0.2
2014-Apr-16 23:33N 33°44' W 118°16'0 0.0
2014-Apr-16 22:32N 33°44' W 118°16'0 0.0
2014-Apr-16 10:17N 33°44' W 118°16'0 0.0
2014-Apr-16 08:29N 33°44' W 118°16'0 0.0
2014-Apr-16 07:32N 33°44' W 118°16'0 0.0
2014-Apr-16 05:29N 33°44' W 118°16'0 0.0
2014-Apr-16 04:32N 33°44' W 118°16'0 0.0
2014-Apr-16 03:32N 33°44' W 118°16'0 0.0
2014-Apr-16 02:32N 33°44' W 118°16'0 0.0
2014-Apr-16 01:32N 33°44' W 118°16'0 0.0
2014-Apr-16 00:29N 33°44' W 118°16'0 0.0
2014-Apr-15 23:29N 33°44' W 118°16'0 0.0
2014-Apr-15 22:32N 33°44' W 118°16'0 0.0
2014-Apr-15 21:32N 33°44' W 118°16'0 0.0
2014-Apr-15 20:32N 33°44' W 118°16'0 0.0
2014-Apr-15 19:32N 33°44' W 118°16'0 0.0
2014-Apr-15 18:32N 33°44' W 118°16'0 0.0
2014-Apr-15 16:29N 33°44' W 118°16'0 0.0
2014-Apr-15 15:32N 33°44' W 118°16'0 0.0
2014-Apr-15 14:23N 33°44' W 118°16'0 0.0
2014-Apr-15 12:32N 33°44' W 118°16'0 0.0
2014-Apr-15 10:32N 33°44' W 118°16'0 0.0
2014-Apr-15 09:32N 33°44' W 118°16'0 0.0
2014-Apr-15 08:32N 33°44' W 118°16'0 0.0
2014-Apr-15 07:32N 33°44' W 118°16'0 0.0
2014-Apr-15 06:32N 33°44' W 118°16'0 0.0
2014-Apr-15 05:32N 33°44' W 118°16'0 0.0
2014-Apr-15 00:32N 33°44' W 118°16'0 0.0
2014-Apr-14 23:32N 33°44' W 118°16'0 0.0
2014-Apr-14 22:32N 33°44' W 118°16'0 0.0
2014-Apr-14 21:32N 33°44' W 118°16'0 0.0
2014-Apr-14 19:31N 33°44' W 118°16'0 0.0
2014-Apr-14 18:31N 33°44' W 118°16'  

Dump ship's entire track history

sailing weather and tide predictions

Ernest Campbell — WDB3005 — position and weather